Time;durP1;ratioP1;P1;durP2;ratioP2;P2;SDS_P1;SDS_P2;PMS_P1;PMS_P2;Temp;Humidity;BMP_temperature;BMP_pressure;BME280_temperature;BME280_humidity;BME280_pressure;Samples;Min_cycle;Max_cycle;Signal;HPM_P1;HPM_P2
2024/01/06 00:01:37;;;;;;;10.05;4.95;;;6.20;99.90;;;;;;5033212;28;20402;-55
2024/01/06 00:04:02;;;;;;;7.60;4.55;;;6.10;99.90;;;;;;5033201;28;20036;-53
2024/01/06 00:06:28;;;;;;;10.35;4.78;;;6.10;99.90;;;;;;5033071;28;20068;-54
2024/01/06 00:08:54;;;;;;;7.82;4.68;;;6.20;99.90;;;;;;5033100;28;20505;-56
2024/01/06 00:11:21;;;;;;;10.68;5.40;;;6.20;99.90;;;;;;5033066;28;20025;-55
2024/01/06 00:13:47;;;;;;;9.25;5.45;;;6.10;99.90;;;;;;5042630;28;20029;-56
2024/01/06 00:16:12;;;;;;;6.97;4.60;;;6.10;99.90;;;;;;5036457;28;20033;-54
2024/01/06 00:18:39;;;;;;;8.68;4.50;;;6.10;99.90;;;;;;5033051;28;20029;-55
2024/01/06 00:21:05;;;;;;;9.45;4.78;;;6.00;99.90;;;;;;5032878;28;20517;-55
2024/01/06 00:23:30;;;;;;;9.02;4.57;;;5.90;99.90;;;;;;5032808;28;20029;-54
2024/01/06 00:25:56;;;;;;;8.35;4.40;;;5.80;99.90;;;;;;5032986;28;20477;-54
2024/01/06 00:28:22;;;;;;;9.75;4.07;;;5.80;99.90;;;;;;5032853;28;20065;-53
2024/01/06 00:30:48;;;;;;;5.95;3.63;;;5.90;99.90;;;;;;5032891;28;20053;-56
2024/01/06 00:33:13;;;;;;;6.55;3.53;;;5.90;99.90;;;;;;5032892;28;20390;-55
2024/01/06 00:35:39;;;;;;;5.72;3.30;;;5.80;99.90;;;;;;5032798;28;20367;-55
2024/01/06 00:38:05;;;;;;;7.38;4.15;;;5.80;99.90;;;;;;5032844;28;20458;-55
2024/01/06 00:40:32;;;;;;;6.85;3.58;;;5.80;99.90;;;;;;5032566;28;20029;-54
2024/01/06 00:42:58;;;;;;;6.03;3.00;;;5.80;99.90;;;;;;5032675;28;20036;-54
2024/01/06 00:45:24;;;;;;;5.88;3.15;;;5.90;99.90;;;;;;5032711;28;20744;-53
2024/01/06 00:47:49;;;;;;;5.20;3.20;;;5.90;99.90;;;;;;5032599;28;20037;-54
2024/01/06 00:50:16;;;;;;;5.47;2.70;;;5.80;99.90;;;;;;5033688;28;20533;-54
2024/01/06 00:52:42;;;;;;;3.35;2.38;;;5.80;99.90;;;;;;5069297;28;20068;-55
2024/01/06 00:55:08;;;;;;;4.63;3.13;;;5.80;99.90;;;;;;5036760;28;20071;-55
2024/01/06 00:57:34;;;;;;;5.97;3.30;;;5.70;99.90;;;;;;5036757;28;20557;-55
2024/01/06 00:59:59;;;;;;;4.43;2.90;;;5.70;99.90;;;;;;5036642;28;20115;-55
2024/01/06 01:02:25;;;;;;;6.47;3.55;;;5.80;99.90;;;;;;5036586;28;20033;-54
2024/01/06 01:04:52;;;;;;;5.88;2.95;;;5.70;99.90;;;;;;5036790;28;20021;-57
2024/01/06 01:07:18;;;;;;;4.20;3.10;;;5.80;99.90;;;;;;5036369;28;20053;-54
2024/01/06 01:09:43;;;;;;;2.83;1.92;;;5.60;99.90;;;;;;5036507;28;20076;-51
2024/01/06 01:12:09;;;;;;;4.63;3.13;;;5.60;99.90;;;;;;5036596;28;20021;-53
2024/01/06 01:14:35;;;;;;;2.60;2.10;;;5.60;99.90;;;;;;5047709;28;20028;-53
2024/01/06 01:17:00;;;;;;;5.70;2.70;;;5.70;99.90;;;;;;5036611;28;20017;-53
2024/01/06 01:19:26;;;;;;;5.15;2.83;;;5.70;99.90;;;;;;5036133;28;20057;-51
2024/01/06 01:21:55;;;;;;;3.75;2.33;;;5.60;99.90;;;;;;5036555;28;20440;-54
2024/01/06 01:24:21;;;;;;;6.03;3.90;;;5.60;99.90;;;;;;5036466;28;20027;-53
2024/01/06 01:26:47;;;;;;;3.95;2.65;;;5.60;99.90;;;;;;5036108;28;20033;-54
2024/01/06 01:29:13;;;;;;;4.72;3.13;;;5.60;99.90;;;;;;5036048;28;20052;-54
2024/01/06 01:31:38;;;;;;;8.02;2.75;;;5.70;99.90;;;;;;5036175;28;20025;-51
2024/01/06 01:34:04;;;;;;;4.55;2.70;;;5.70;99.90;;;;;;5036053;28;20021;-53
2024/01/06 01:36:30;;;;;;;3.45;2.70;;;5.80;99.90;;;;;;5035997;28;20021;-54
2024/01/06 01:38:55;;;;;;;10.70;3.13;;;5.80;99.90;;;;;;5035896;28;20029;-52
2024/01/06 01:41:21;;;;;;;3.60;2.20;;;5.80;99.90;;;;;;5035852;28;20040;-55
2024/01/06 01:43:46;;;;;;;3.38;2.65;;;5.70;99.90;;;;;;5035876;28;20052;-54
2024/01/06 01:46:12;;;;;;;4.03;2.30;;;5.60;99.90;;;;;;5035792;28;20025;-54
2024/01/06 01:48:38;;;;;;;6.22;2.47;;;5.60;99.90;;;;;;5035502;28;20061;-52
2024/01/06 01:51:04;;;;;;;4.82;3.47;;;5.60;99.90;;;;;;5035677;28;20025;-54
2024/01/06 01:53:31;;;;;;;5.88;2.80;;;5.60;99.90;;;;;;5035898;28;20533;-59
2024/01/06 01:55:58;;;;;;;5.88;2.30;;;5.50;99.90;;;;;;5035574;28;20121;-54
2024/01/06 01:58:24;;;;;;;3.08;2.25;;;5.40;99.90;;;;;;5035572;28;20057;-54
2024/01/06 02:00:50;;;;;;;4.80;3.05;;;5.50;99.90;;;;;;5034413;28;20489;-54
2024/01/06 02:03:16;;;;;;;4.63;3.03;;;5.50;99.90;;;;;;5033895;28;20060;-53
2024/01/06 02:05:42;;;;;;;4.38;2.53;;;5.40;99.90;;;;;;5034169;28;20489;-49
2024/01/06 02:08:08;;;;;;;9.77;2.97;;;5.40;99.90;;;;;;5033876;28;20032;-53
2024/01/06 02:10:34;;;;;;;10.15;3.72;;;5.50;99.90;;;;;;5035501;28;20535;-53
2024/01/06 02:13:10;;;;;;;3.40;3.10;;;5.40;99.90;;;;;;5038449;28;20025;-54
2024/01/06 02:15:35;;;;;;;5.47;3.65;;;5.50;99.90;;;;;;5044034;28;20086;-54
2024/01/06 02:18:01;;;;;;;5.90;4.00;;;5.40;99.90;;;;;;5035190;28;20030;-52
2024/01/06 02:20:31;;;;;;;4.95;2.95;;;5.40;99.90;;;;;;5034971;28;20056;-53
2024/01/06 02:22:59;;;;;;;5.63;2.95;;;5.40;99.90;;;;;;5035284;28;20474;-55
2024/01/06 02:25:25;;;;;;;4.18;2.90;;;5.40;99.90;;;;;;5035351;28;20500;-54
2024/01/06 02:27:50;;;;;;;5.25;2.58;;;5.40;99.90;;;;;;5035002;28;20029;-52
2024/01/06 02:30:16;;;;;;;3.50;2.60;;;5.30;99.90;;;;;;5033738;28;20032;-42
2024/01/06 02:32:42;;;;;;;4.07;2.53;;;5.40;99.90;;;;;;5035200;28;20030;-43
2024/01/06 02:35:08;;;;;;;5.95;2.30;;;5.40;99.90;;;;;;5035181;28;20021;-38
2024/01/06 02:37:34;;;;;;;7.38;2.40;;;5.40;99.90;;;;;;5034844;28;20029;-40
2024/01/06 02:39:59;;;;;;;2.60;2.00;;;5.30;99.90;;;;;;5034995;28;20040;-39
2024/01/06 02:42:25;;;;;;;8.20;2.58;;;5.30;99.90;;;;;;5034994;28;20482;-48
2024/01/06 02:44:51;;;;;;;3.13;2.10;;;5.30;99.90;;;;;;5034729;28;20501;-42
2024/01/06 02:47:17;;;;;;;2.15;1.95;;;5.30;99.90;;;;;;5034618;28;20490;-50
2024/01/06 02:49:42;;;;;;;3.63;1.88;;;5.30;99.90;;;;;;5034982;28;20056;-40
2024/01/06 02:52:08;;;;;;;4.68;1.85;;;5.30;99.90;;;;;;5034615;28;20100;-44
2024/01/06 02:54:34;;;;;;;11.30;2.97;;;5.30;99.90;;;;;;5034547;28;20036;-39
2024/01/06 02:56:59;;;;;;;2.90;2.28;;;5.20;99.90;;;;;;5034607;28;20028;-42
2024/01/06 02:59:25;;;;;;;2.55;2.10;;;5.20;99.90;;;;;;5034458;28;20108;-39
2024/01/06 03:01:51;;;;;;;2.38;2.00;;;5.20;99.90;;;;;;5034665;28;20029;-44
2024/01/06 03:04:17;;;;;;;2.40;1.83;;;5.10;99.90;;;;;;5034338;28;20478;-44
2024/01/06 03:06:42;;;;;;;3.58;2.22;;;5.20;99.90;;;;;;5034519;28;20096;-43
2024/01/06 03:09:08;;;;;;;3.42;1.95;;;5.10;99.90;;;;;;5034136;28;20026;-39
2024/01/06 03:11:34;;;;;;;4.28;2.08;;;5.10;99.90;;;;;;5034014;28;20512;-40
2024/01/06 03:13:59;;;;;;;4.65;2.67;;;5.10;99.90;;;;;;5036549;28;20014;-40
2024/01/06 03:16:25;;;;;;;7.88;3.10;;;5.20;99.90;;;;;;5034061;28;20021;-40
2024/01/06 03:18:51;;;;;;;4.35;2.45;;;5.20;99.90;;;;;;5034061;28;20025;-42
2024/01/06 03:21:20;;;;;;;6.53;3.05;;;5.20;99.90;;;;;;5033826;28;20057;-42
2024/01/06 03:23:46;;;;;;;3.65;2.65;;;5.10;99.90;;;;;;5034019;28;20079;-42
2024/01/06 03:26:12;;;;;;;7.25;3.50;;;5.10;99.90;;;;;;5034203;28;20029;-41
2024/01/06 03:28:38;;;;;;;6.03;3.60;;;5.10;99.90;;;;;;5033791;28;20361;-40
2024/01/06 03:31:03;;;;;;;11.10;3.80;;;5.20;99.90;;;;;;5033619;28;20378;-39
2024/01/06 03:33:29;;;;;;;7.03;3.53;;;5.20;99.90;;;;;;5033791;28;20025;-40
2024/01/06 03:35:54;;;;;;;5.97;3.45;;;5.20;99.90;;;;;;5033721;28;20014;-39
2024/01/06 03:38:20;;;;;;;5.90;3.55;;;5.10;99.90;;;;;;5033687;28;20152;-41
2024/01/06 03:40:46;;;;;;;7.40;3.35;;;5.10;99.90;;;;;;5033588;28;20021;-43
2024/01/06 03:43:11;;;;;;;10.32;3.53;;;5.10;99.90;;;;;;5033545;28;20029;-43
2024/01/06 03:45:37;;;;;;;9.00;3.72;;;5.10;99.90;;;;;;5033466;28;20383;-43
2024/01/06 03:48:03;;;;;;;5.80;3.58;;;5.10;99.90;;;;;;5033551;28;20528;-39
2024/01/06 03:50:28;;;;;;;8.23;3.55;;;5.10;99.90;;;;;;5033756;28;20018;-40
2024/01/06 03:52:54;;;;;;;8.30;4.03;;;5.20;99.90;;;;;;5033393;28;20026;-39
2024/01/06 03:55:20;;;;;;;9.82;4.18;;;5.10;99.90;;;;;;5033206;28;20029;-39
2024/01/06 03:57:45;;;;;;;7.43;4.05;;;5.00;99.90;;;;;;5033642;28;20083;-42
2024/01/06 04:00:11;;;;;;;7.60;4.07;;;5.00;99.90;;;;;;5029622;28;20101;-44
2024/01/06 04:02:37;;;;;;;9.82;4.53;;;5.00;99.90;;;;;;5033116;28;20029;-41
2024/01/06 04:05:05;;;;;;;9.88;4.78;;;5.00;99.90;;;;;;5032998;28;20017;-40
2024/01/06 04:07:30;;;;;;;6.85;4.22;;;5.00;99.90;;;;;;5033288;28;20033;-43
2024/01/06 04:09:56;;;;;;;9.85;4.68;;;5.00;99.90;;;;;;5033176;28;20047;-41
2024/01/06 04:12:22;;;;;;;9.38;4.70;;;5.10;99.90;;;;;;5033057;28;20536;-39
2024/01/06 04:14:47;;;;;;;7.35;4.32;;;5.10;99.90;;;;;;5031760;28;20017;-38
2024/01/06 04:17:13;;;;;;;12.20;4.80;;;5.20;99.90;;;;;;5033120;28;20508;-43
2024/01/06 04:19:38;;;;;;;8.30;4.07;;;5.20;99.90;;;;;;5031482;28;20509;-41
2024/01/06 04:22:04;;;;;;;12.18;4.18;;;5.20;99.90;;;;;;5033153;28;20017;-51
2024/01/06 04:24:30;;;;;;;10.82;6.50;;;5.10;99.90;;;;;;5031058;28;20021;-43
2024/01/06 04:26:55;;;;;;;8.32;4.25;;;5.10;99.90;;;;;;5032988;28;20096;-42
2024/01/06 04:29:21;;;;;;;10.15;4.07;;;5.10;99.90;;;;;;5033067;28;20075;-41
2024/01/06 04:31:47;;;;;;;11.02;4.75;;;5.10;99.90;;;;;;5032845;28;20026;-41
2024/01/06 04:34:12;;;;;;;7.75;4.07;;;5.10;99.90;;;;;;5032811;28;20037;-42
2024/01/06 04:36:38;;;;;;;11.07;4.30;;;5.00;99.90;;;;;;5032867;28;20238;-39
2024/01/06 04:39:04;;;;;;;10.32;4.63;;;5.00;99.90;;;;;;5032659;28;20025;-39
2024/01/06 04:41:30;;;;;;;10.23;4.50;;;5.00;99.90;;;;;;5032742;28;20546;-40
2024/01/06 04:43:55;;;;;;;12.35;3.38;;;5.00;99.90;;;;;;5032727;28;20105;-39
2024/01/06 04:46:21;;;;;;;6.63;4.00;;;5.00;99.90;;;;;;5032752;28;20030;-44
2024/01/06 04:48:47;;;;;;;9.25;3.97;;;5.10;99.90;;;;;;5032948;28;20468;-43
2024/01/06 04:51:13;;;;;;;10.25;3.97;;;5.00;99.90;;;;;;5032942;28;20068;-41
2024/01/06 04:53:40;;;;;;;6.50;3.55;;;5.00;99.90;;;;;;5032577;28;20025;-44
2024/01/06 04:56:05;;;;;;;5.68;3.63;;;5.00;99.90;;;;;;5032407;28;20018;-44
2024/01/06 04:58:31;;;;;;;12.05;4.28;;;5.00;99.90;;;;;;5032859;28;20104;-43
2024/01/06 05:00:57;;;;;;;5.85;3.15;;;5.10;99.90;;;;;;5032575;28;20470;-41
2024/01/06 05:03:23;;;;;;;8.02;3.20;;;5.00;99.90;;;;;;5032510;28;20026;-40
2024/01/06 05:05:48;;;;;;;6.53;3.70;;;5.10;99.90;;;;;;5032513;28;20478;-42
2024/01/06 05:08:14;;;;;;;6.35;2.97;;;5.10;99.90;;;;;;5032500;28;20485;-41
2024/01/06 05:10:40;;;;;;;3.65;2.90;;;5.10;99.90;;;;;;5032754;28;20096;-39
2024/01/06 05:13:05;;;;;;;9.73;3.53;;;5.10;99.90;;;;;;5032614;28;20017;-40
2024/01/06 05:15:31;;;;;;;5.80;2.97;;;5.10;99.90;;;;;;5032620;28;20014;-41
2024/01/06 05:17:56;;;;;;;3.60;2.75;;;5.00;99.90;;;;;;5032436;28;20032;-47
2024/01/06 05:20:22;;;;;;;4.18;3.08;;;5.00;99.90;;;;;;5032135;28;20053;-41
2024/01/06 05:22:48;;;;;;;13.27;3.80;;;5.00;99.90;;;;;;5032414;28;20393;-42
2024/01/06 05:25:14;;;;;;;7.07;3.67;;;5.00;99.90;;;;;;5032671;28;20070;-41
2024/01/06 05:27:39;;;;;;;7.95;3.08;;;5.00;99.90;;;;;;5032219;28;20029;-45
2024/01/06 05:30:08;;;;;;;6.60;3.45;;;4.90;99.90;;;;;;5032407;28;20461;-40
2024/01/06 05:32:33;;;;;;;5.70;2.67;;;5.00;99.90;;;;;;5032604;28;20493;-42
2024/01/06 05:34:59;;;;;;;6.78;2.15;;;4.90;99.90;;;;;;5032310;28;20029;-44
2024/01/06 05:37:25;;;;;;;3.47;2.20;;;4.90;99.90;;;;;;5035003;28;20525;-46
2024/01/06 05:39:50;;;;;;;3.72;1.85;;;4.90;99.90;;;;;;5035923;28;20064;-45
2024/01/06 05:42:16;;;;;;;3.97;1.63;;;4.80;99.90;;;;;;5036213;28;20025;-43
2024/01/06 05:44:41;;;;;;;7.63;2.30;;;4.70;99.90;;;;;;5035900;28;20093;-42
2024/01/06 05:47:08;;;;;;;2.72;1.85;;;4.70;99.90;;;;;;5035723;28;20021;-42
2024/01/06 05:49:33;;;;;;;8.27;2.53;;;4.80;99.90;;;;;;5035984;28;20033;-41
2024/01/06 05:51:59;;;;;;;2.50;1.90;;;4.80;99.90;;;;;;5035974;28;20470;-40
2024/01/06 05:54:25;;;;;;;4.43;2.83;;;4.80;99.90;;;;;;5039955;28;20013;-40
2024/01/06 05:56:50;;;;;;;3.00;2.13;;;4.80;99.90;;;;;;5044414;28;20387;-39
2024/01/06 05:59:16;;;;;;;5.55;3.03;;;4.80;99.90;;;;;;5035909;28;20036;-39
2024/01/06 06:01:43;;;;;;;8.23;2.42;;;4.70;99.90;;;;;;5035822;28;20025;-43
2024/01/06 06:04:09;;;;;;;5.93;2.83;;;4.70;99.90;;;;;;5035361;28;20049;-41
2024/01/06 06:06:35;;;;;;;5.10;3.05;;;4.60;99.90;;;;;;5035698;28;20508;-46
2024/01/06 06:09:01;;;;;;;7.05;3.30;;;4.60;99.90;;;;;;5035357;28;20033;-39
2024/01/06 06:11:27;;;;;;;4.90;3.78;;;4.70;99.90;;;;;;5035542;28;20022;-40
2024/01/06 06:13:52;;;;;;;3.10;2.47;;;4.70;99.90;;;;;;5035600;28;20057;-43
2024/01/06 06:16:18;;;;;;;5.53;3.15;;;4.70;99.90;;;;;;5035261;28;20493;-38
2024/01/06 06:18:44;;;;;;;4.88;2.60;;;4.70;99.90;;;;;;5035497;28;20086;-40
2024/01/06 06:21:10;;;;;;;5.35;3.03;;;4.60;99.90;;;;;;5034974;28;20119;-43
2024/01/06 06:23:35;;;;;;;6.82;2.70;;;4.60;99.90;;;;;;5035147;28;20538;-40
2024/01/06 06:26:08;;;;;;;8.68;3.10;;;4.60;99.90;;;;;;5035058;28;20394;-42
2024/01/06 06:28:34;;;;;;;6.85;3.13;;;4.60;99.90;;;;;;5035035;28;20033;-39
2024/01/06 06:31:01;;;;;;;5.55;3.10;;;4.60;99.90;;;;;;5034938;28;20049;-39
2024/01/06 06:33:27;;;;;;;9.68;2.78;;;4.60;99.90;;;;;;5035178;28;20529;-40
2024/01/06 06:35:52;;;;;;;6.15;3.40;;;4.70;99.90;;;;;;5034893;28;20056;-40
2024/01/06 06:38:18;;;;;;;5.25;2.45;;;4.70;99.90;;;;;;5035001;28;20087;-39
2024/01/06 06:40:44;;;;;;;3.65;2.45;;;4.70;99.90;;;;;;5035095;28;20103;-38
2024/01/06 06:43:09;;;;;;;3.70;2.65;;;4.70;99.90;;;;;;5035070;28;20057;-44
2024/01/06 06:45:35;;;;;;;3.83;2.10;;;4.70;99.90;;;;;;5034996;28;20036;-43
2024/01/06 06:48:01;;;;;;;3.30;2.15;;;4.70;99.90;;;;;;5033790;28;20516;-42
2024/01/06 06:50:26;;;;;;;3.08;2.03;;;4.70;99.90;;;;;;5034628;28;20107;-42
2024/01/06 06:52:52;;;;;;;4.05;2.50;;;4.70;99.90;;;;;;5034584;28;20103;-41
2024/01/06 06:55:18;;;;;;;8.18;2.55;;;4.70;99.90;;;;;;5034846;28;20013;-43
2024/01/06 06:57:45;;;;;;;7.30;2.30;;;4.60;99.90;;;;;;5034402;28;20032;-41
2024/01/06 07:00:11;;;;;;;6.80;1.98;;;4.60;99.90;;;;;;5034749;28;20045;-45
2024/01/06 07:02:37;;;;;;;3.45;2.22;;;4.60;99.90;;;;;;5034439;28;20036;-45
2024/01/06 07:05:06;;;;;;;4.13;2.75;;;4.60;99.90;;;;;;5034305;28;20029;-40
2024/01/06 07:07:33;;;;;;;5.35;2.60;;;4.60;99.90;;;;;;5034462;28;20104;-42
2024/01/06 07:10:00;;;;;;;7.32;2.58;;;4.60;99.90;;;;;;5034443;28;20466;-42
2024/01/06 07:12:27;;;;;;;4.45;2.03;;;4.60;99.90;;;;;;5034041;28;20475;-41
2024/01/06 07:14:52;;;;;;;4.80;2.67;;;4.60;99.90;;;;;;5032934;28;20535;-43
2024/01/06 07:17:18;;;;;;;6.07;2.90;;;4.60;99.90;;;;;;5034136;28;20029;-53
2024/01/06 07:19:45;;;;;;;3.75;2.65;;;4.60;99.90;;;;;;5033918;28;20041;-54
2024/01/06 07:22:10;;;;;;;4.05;2.97;;;4.60;99.90;;;;;;5034084;28;20036;-54
2024/01/06 07:24:36;;;;;;;6.57;3.50;;;4.60;99.90;;;;;;5034296;28;20025;-54
2024/01/06 07:27:03;;;;;;;5.15;3.45;;;4.60;99.90;;;;;;5034243;28;20101;-53
2024/01/06 07:29:29;;;;;;;4.88;2.60;;;4.60;99.90;;;;;;5033956;28;20479;-53
2024/01/06 07:31:55;;;;;;;5.10;3.38;;;4.50;99.90;;;;;;5033903;28;20022;-51
2024/01/06 07:34:20;;;;;;;4.63;3.33;;;4.50;99.90;;;;;;5034047;28;20025;-51
2024/01/06 07:36:46;;;;;;;6.45;2.90;;;4.50;99.90;;;;;;5033757;28;20025;-54
2024/01/06 07:39:12;;;;;;;6.13;3.22;;;4.50;99.90;;;;;;5033739;28;20056;-54
2024/01/06 07:41:38;;;;;;;11.38;3.75;;;4.60;99.90;;;;;;5033682;28;20151;-53
2024/01/06 07:44:04;;;;;;;11.48;4.20;;;4.50;99.90;;;;;;5032677;28;20034;-54
2024/01/06 07:46:31;;;;;;;7.88;3.88;;;4.50;99.90;;;;;;5033716;28;20032;-53
2024/01/06 07:48:57;;;;;;;7.93;4.30;;;4.50;99.90;;;;;;5033455;28;20042;-54
2024/01/06 07:51:23;;;;;;;10.07;4.28;;;4.50;99.90;;;;;;5033406;28;20386;-55
2024/01/06 07:53:48;;;;;;;9.13;4.60;;;4.50;99.90;;;;;;5033446;28;20069;-57
2024/01/06 07:56:14;;;;;;;7.90;3.97;;;4.50;99.90;;;;;;5046426;28;20434;-56
2024/01/06 07:58:40;;;;;;;6.47;3.92;;;4.40;99.90;;;;;;5033587;28;20025;-54
2024/01/06 08:01:05;;;;;;;6.35;4.28;;;4.40;99.90;;;;;;5033280;28;20037;-55
2024/01/06 08:03:31;;;;;;;8.23;3.88;;;4.40;99.90;;;;;;5032137;28;20028;-54
2024/01/06 08:05:56;;;;;;;7.03;3.90;;;4.50;99.90;;;;;;5033240;28;20025;-55
2024/01/06 08:08:22;;;;;;;8.50;4.32;;;4.50;99.90;;;;;;5033395;28;20030;-52
2024/01/06 08:10:48;;;;;;;6.57;3.90;;;4.60;99.90;;;;;;5033378;28;20426;-54
2024/01/06 08:13:14;;;;;;;7.25;3.70;;;4.60;99.90;;;;;;5033116;28;20022;-56
2024/01/06 08:15:40;;;;;;;7.72;2.92;;;4.60;99.90;;;;;;5033098;28;20037;-53
2024/01/06 08:18:06;;;;;;;6.32;3.60;;;4.50;99.90;;;;;;5033059;28;20037;-55
2024/01/06 08:20:31;;;;;;;7.45;3.53;;;4.50;99.90;;;;;;5032769;28;20124;-54
2024/01/06 08:22:57;;;;;;;8.07;3.22;;;4.50;99.90;;;;;;5033033;28;20032;-55
2024/01/06 08:25:22;;;;;;;5.50;3.92;;;4.50;99.90;;;;;;5033025;28;20029;-54
2024/01/06 08:27:48;;;;;;;5.70;3.88;;;4.60;99.90;;;;;;5032846;28;20033;-54
2024/01/06 08:30:14;;;;;;;3.92;3.15;;;4.60;99.90;;;;;;5033148;28;20470;-53
2024/01/06 08:32:40;;;;;;;8.45;4.07;;;4.50;99.90;;;;;;5032839;28;20025;-54
2024/01/06 08:35:06;;;;;;;5.47;3.28;;;4.50;99.90;;;;;;5032839;28;20056;-55
2024/01/06 08:37:31;;;;;;;8.13;3.70;;;4.60;99.90;;;;;;5032662;28;20028;-54
2024/01/06 08:39:57;;;;;;;6.78;3.50;;;4.60;99.90;;;;;;5032799;28;20490;-54
2024/01/06 08:42:24;;;;;;;5.97;3.30;;;4.60;99.90;;;;;;5032777;28;20053;-55
2024/01/06 08:44:49;;;;;;;3.67;2.80;;;4.70;99.90;;;;;;5032743;28;20112;-56
2024/01/06 08:47:15;;;;;;;11.50;3.00;;;4.60;99.90;;;;;;5032737;28;20486;-54
2024/01/06 08:49:41;;;;;;;4.97;2.75;;;4.60;99.90;;;;;;5032838;28;20116;-53
2024/01/06 08:52:06;;;;;;;16.77;3.75;;;4.60;99.90;;;;;;5032667;28;20036;-54
2024/01/06 08:54:32;;;;;;;7.47;2.95;;;4.70;99.90;;;;;;5037666;28;20541;-54
2024/01/06 08:56:58;;;;;;;3.33;2.78;;;4.70;99.90;;;;;;5040563;28;20017;-53
2024/01/06 08:59:24;;;;;;;4.00;2.58;;;4.80;99.90;;;;;;5032574;28;20025;-56
2024/01/06 09:01:50;;;;;;;10.43;2.50;;;4.80;99.90;;;;;;5032836;28;20105;-56
2024/01/06 09:04:15;;;;;;;7.20;2.95;;;4.80;99.90;;;;;;5032491;28;20057;-55
2024/01/06 09:06:44;;;;;;;4.22;2.40;;;4.90;99.90;;;;;;5032570;28;20117;-55
2024/01/06 09:09:10;;;;;;;8.32;2.47;;;4.90;99.90;;;;;;5032427;28;20486;-55
2024/01/06 09:11:36;;;;;;;5.05;2.30;;;5.00;99.90;;;;;;5033854;28;20033;-55
2024/01/06 09:14:02;;;;;;;7.13;2.42;;;5.00;99.90;;;;;;5036726;28;20052;-55
2024/01/06 09:16:27;;;;;;;5.55;2.75;;;4.90;99.90;;;;;;5036381;28;20029;-55
2024/01/06 09:18:53;;;;;;;8.05;2.40;;;4.90;99.90;;;;;;5036309;28;20026;-55
2024/01/06 09:21:19;;;;;;;9.18;1.83;;;4.90;99.90;;;;;;5036052;28;20563;-55
2024/01/06 09:23:44;;;;;;;6.68;2.53;;;4.90;99.90;;;;;;5036315;28;20033;-53
2024/01/06 09:26:10;;;;;;;6.03;2.60;;;4.90;99.90;;;;;;5036525;28;20033;-54
2024/01/06 09:28:36;;;;;;;4.50;2.50;;;5.00;99.90;;;;;;5036008;28;20055;-56
2024/01/06 09:31:01;;;;;;;10.98;2.80;;;5.00;99.90;;;;;;5036167;28;20022;-56
2024/01/06 09:33:27;;;;;;;5.75;2.58;;;5.00;99.90;;;;;;5036360;28;20034;-57
2024/01/06 09:35:53;;;;;;;4.07;2.00;;;5.00;99.90;;;;;;5036362;28;20072;-54
2024/01/06 09:38:19;;;;;;;4.35;2.58;;;5.00;99.90;;;;;;5036020;28;20566;-55
2024/01/06 09:40:45;;;;;;;2.50;2.30;;;5.10;99.90;;;;;;5036019;28;20033;-56
2024/01/06 09:43:11;;;;;;;5.15;2.45;;;5.10;99.90;;;;;;5036179;28;20116;-55
2024/01/06 09:45:39;;;;;;;9.95;2.88;;;5.10;99.90;;;;;;5035753;28;20569;-54
2024/01/06 09:48:14;;;;;;;4.72;3.65;;;5.10;99.90;;;;;;5036106;28;20053;-56
2024/01/06 09:50:46;;;;;;;3.90;2.25;;;5.00;99.90;;;;;;5036114;28;20025;-56
2024/01/06 09:53:13;;;;;;;3.10;2.15;;;4.90;99.90;;;;;;5035770;28;20025;-56
2024/01/06 09:55:39;;;;;;;2.35;2.10;;;4.80;99.90;;;;;;5048633;28;20091;-56
2024/01/06 09:58:06;;;;;;;3.78;2.60;;;4.80;99.90;;;;;;5035964;28;20490;-56
2024/01/06 10:00:31;;;;;;;4.05;2.47;;;4.80;99.90;;;;;;5035617;28;20056;-55
2024/01/06 10:02:57;;;;;;;2.55;2.35;;;4.70;99.90;;;;;;5035357;28;20064;-54
2024/01/06 10:05:24;;;;;;;9.18;2.78;;;4.80;99.90;;;;;;5035499;28;20036;-55
2024/01/06 10:07:49;;;;;;;5.63;3.03;;;4.70;99.90;;;;;;5035430;28;20367;-55
2024/01/06 10:10:15;;;;;;;9.68;3.13;;;4.70;99.90;;;;;;5034231;28;20032;-56
2024/01/06 10:12:42;;;;;;;3.78;2.83;;;4.70;99.90;;;;;;5035607;28;20474;-56
2024/01/06 10:15:09;;;;;;;4.93;2.78;;;4.70;99.90;;;;;;5035420;28;20037;-54
2024/01/06 10:17:41;;;;;;;4.72;3.50;;;4.70;99.90;;;;;;5035350;28;20509;-42
2024/01/06 10:20:12;;;;;;;10.00;3.13;;;4.80;99.90;;;;;;5034936;28;20521;-42
2024/01/06 10:22:41;;;;;;;3.92;2.75;;;4.80;99.90;;;;;;5034378;28;20424;-45
2024/01/06 10:25:09;;;;;;;4.78;3.08;;;4.90;99.90;;;;;;5035196;28;20030;-41
2024/01/06 10:27:36;;;;;;;5.07;2.53;;;4.90;99.90;;;;;;5035351;28;20054;-44
2024/01/06 10:30:02;;;;;;;3.90;2.87;;;5.00;99.90;;;;;;5035273;28;20462;-44
2024/01/06 10:32:31;;;;;;;4.15;2.63;;;5.00;99.90;;;;;;5034996;28;20028;-43
2024/01/06 10:34:57;;;;;;;9.07;3.00;;;4.90;99.90;;;;;;5034986;28;20032;-40
2024/01/06 10:37:24;;;;;;;7.72;3.05;;;4.90;99.90;;;;;;5034701;28;20026;-42
2024/01/06 10:40:17;;;;;;;11.15;3.00;;;4.90;99.90;;;;;;5035103;28;20390;-44
2024/01/06 10:42:45;;;;;;;5.63;2.80;;;5.00;99.90;;;;;;5035009;28;20036;-40
2024/01/06 10:45:13;;;;;;;3.35;2.63;;;5.10;99.90;;;;;;5034750;28;20409;-54
2024/01/06 10:47:43;;;;;;;5.63;2.53;;;5.10;99.90;;;;;;5034902;28;20502;-55
2024/01/06 10:50:09;;;;;;;12.27;2.60;;;5.10;99.90;;;;;;5034669;28;20567;-54
2024/01/06 10:52:36;;;;;;;5.43;3.00;;;5.10;99.90;;;;;;5034771;28;20040;-55
2024/01/06 10:55:02;;;;;;;4.57;2.90;;;5.00;99.90;;;;;;5043963;28;20430;-54
2024/01/06 10:57:31;;;;;;;4.97;3.40;;;5.00;99.90;;;;;;5038238;28;20773;-41
2024/01/06 10:59:58;;;;;;;5.00;2.78;;;5.00;99.90;;;;;;5034727;28;20030;-46
2024/01/06 11:02:25;;;;;;;4.47;2.88;;;5.00;99.90;;;;;;5034356;28;20570;-44
2024/01/06 11:04:51;;;;;;;3.63;2.75;;;5.00;99.90;;;;;;5034338;28;20489;-41
2024/01/06 11:07:22;;;;;;;6.10;2.45;;;5.00;99.90;;;;;;5033077;28;20036;-45
2024/01/06 11:10:02;;;;;;;11.13;3.50;;;5.00;99.90;;;;;;5034080;28;20064;-45
2024/01/06 11:12:28;;;;;;;8.77;3.25;;;5.00;99.90;;;;;;5033992;28;20021;-49
2024/01/06 11:14:54;;;;;;;4.05;2.45;;;5.10;99.90;;;;;;5034162;28;20426;-44
2024/01/06 11:17:55;;;;;;;7.22;2.35;;;5.10;99.90;;;;;;5034139;28;20075;-45
2024/01/06 11:20:22;;;;;;;6.32;2.67;;;5.10;99.90;;;;;;5033971;28;20497;-47
2024/01/06 11:22:49;;;;;;;4.68;3.15;;;5.00;99.90;;;;;;5034317;28;20351;-46
2024/01/06 11:25:20;;;;;;;3.08;2.40;;;5.10;99.90;;;;;;5034012;28;20028;-41
2024/01/06 11:27:47;;;;;;;4.57;2.78;;;5.00;99.90;;;;;;5033977;28;20025;-45
2024/01/06 11:30:24;;;;;;;8.10;2.78;;;5.10;99.90;;;;;;5033698;28;20019;-41
2024/01/06 11:32:58;;;;;;;5.45;2.25;;;5.00;99.90;;;;;;5033759;28;20021;-42
2024/01/06 11:35:29;;;;;;;3.00;2.15;;;5.00;99.90;;;;;;5033778;28;20482;-43
2024/01/06 11:37:57;;;;;;;5.22;2.95;;;4.90;99.90;;;;;;5034066;28;20492;-42
2024/01/06 11:40:25;;;;;;;3.57;2.30;;;4.90;99.90;;;;;;5033944;28;20021;-42
2024/01/06 11:42:59;;;;;;;4.28;2.88;;;4.80;99.90;;;;;;5032326;28;20090;-45
2024/01/06 11:45:26;;;;;;;5.28;2.90;;;4.80;99.90;;;;;;5033349;28;20440;-46
2024/01/06 11:48:03;;;;;;;3.78;3.00;;;4.80;99.90;;;;;;5033517;28;20108;-45
2024/01/06 11:50:33;;;;;;;5.88;3.00;;;4.80;99.90;;;;;;5033537;28;20022;-45
2024/01/06 11:53:02;;;;;;;7.00;2.67;;;4.80;99.90;;;;;;5033710;28;20362;-41
2024/01/06 11:55:28;;;;;;;5.20;2.25;;;4.80;99.90;;;;;;5046508;28;20469;-41
2024/01/06 11:57:56;;;;;;;10.40;2.50;;;4.70;99.90;;;;;;5033387;28;20032;-43
2024/01/06 12:00:21;;;;;;;2.65;2.40;;;4.80;99.90;;;;;;5033517;28;20601;-44
2024/01/06 12:02:47;;;;;;;4.15;2.78;;;4.80;99.90;;;;;;5033219;28;20030;-41
2024/01/06 12:05:15;;;;;;;3.25;2.40;;;4.70;99.90;;;;;;5033242;28;20374;-44
2024/01/06 12:07:44;;;;;;;8.70;2.80;;;4.80;99.90;;;;;;5033099;28;20037;-46
2024/01/06 12:10:11;;;;;;;4.55;2.60;;;4.90;99.90;;;;;;5033186;28;20030;-56
2024/01/06 12:12:38;;;;;;;6.63;2.80;;;4.90;99.90;;;;;;5033250;28;20053;-56
2024/01/06 12:15:05;;;;;;;2.78;2.13;;;5.00;99.90;;;;;;5033027;28;20028;-56
2024/01/06 12:17:31;;;;;;;2.42;2.08;;;5.00;99.90;;;;;;5032915;28;20385;-56
2024/01/06 12:19:57;;;;;;;4.50;3.50;;;5.00;99.90;;;;;;5032845;28;20028;-55
2024/01/06 12:22:23;;;;;;;3.78;2.53;;;5.00;99.90;;;;;;5033042;28;20390;-57
2024/01/06 12:24:51;;;;;;;4.53;2.50;;;5.00;99.90;;;;;;5032904;28;20037;-55
2024/01/06 12:27:18;;;;;;;7.88;3.22;;;5.10;99.90;;;;;;5032968;28;20034;-56
2024/01/06 12:29:44;;;;;;;3.25;2.50;;;5.10;99.90;;;;;;5033091;28;20060;-54
2024/01/06 12:32:13;;;;;;;4.82;2.83;;;5.10;99.90;;;;;;5032826;28;20367;-54
2024/01/06 12:34:39;;;;;;;4.10;3.03;;;5.10;99.90;;;;;;5032695;28;20096;-53
2024/01/06 12:37:05;;;;;;;8.20;2.65;;;5.00;99.90;;;;;;5033144;28;20021;-53
2024/01/06 12:39:32;;;;;;;6.15;3.28;;;5.10;99.90;;;;;;5032978;28;20505;-55
2024/01/06 12:42:00;;;;;;;7.07;2.40;;;5.10;99.90;;;;;;5032783;28;20037;-55
2024/01/06 12:44:26;;;;;;;5.32;2.28;;;5.20;99.90;;;;;;5032710;28;20055;-52
2024/01/06 12:46:51;;;;;;;2.55;2.10;;;5.00;99.90;;;;;;5031999;28;20449;-56
2024/01/06 12:49:17;;;;;;;3.78;2.20;;;5.00;99.90;;;;;;5032649;28;20121;-55
2024/01/06 12:51:43;;;;;;;5.82;2.65;;;5.00;99.90;;;;;;5032758;28;20471;-56